sensor_id;sensor_type;location;lat;lon;timestamp;P1;durP1;ratioP1;P2;durP2;ratioP2
54460;SDS011;40371;49.414;11.010;2023-04-19T00:00:04;8.13;;;6.40;;
54460;SDS011;40371;49.414;11.010;2023-04-19T00:02:35;8.03;;;6.13;;
54460;SDS011;40371;49.414;11.010;2023-04-19T00:05:00;7.60;;;5.97;;
54460;SDS011;40371;49.414;11.010;2023-04-19T00:07:26;7.40;;;6.17;;
54460;SDS011;40371;49.414;11.010;2023-04-19T00:09:52;7.90;;;6.60;;
54460;SDS011;40371;49.414;11.010;2023-04-19T00:12:17;6.37;;;5.77;;
54460;SDS011;40371;49.414;11.010;2023-04-19T00:14:43;6.73;;;6.10;;
54460;SDS011;40371;49.414;11.010;2023-04-19T00:17:09;6.80;;;6.20;;
54460;SDS011;40371;49.414;11.010;2023-04-19T00:19:35;7.23;;;6.63;;
54460;SDS011;40371;49.414;11.010;2023-04-19T00:22:01;8.10;;;6.40;;
54460;SDS011;40371;49.414;11.010;2023-04-19T00:24:27;7.20;;;6.60;;
54460;SDS011;40371;49.414;11.010;2023-04-19T00:26:53;8.10;;;7.33;;
54460;SDS011;40371;49.414;11.010;2023-04-19T00:29:18;7.17;;;6.47;;
54460;SDS011;40371;49.414;11.010;2023-04-19T00:31:44;8.03;;;7.13;;
54460;SDS011;40371;49.414;11.010;2023-04-19T00:34:09;8.43;;;7.63;;
54460;SDS011;40371;49.414;11.010;2023-04-19T00:36:35;7.83;;;7.13;;
54460;SDS011;40371;49.414;11.010;2023-04-19T00:39:01;7.70;;;6.87;;
54460;SDS011;40371;49.414;11.010;2023-04-19T00:41:27;7.13;;;6.53;;
54460;SDS011;40371;49.414;11.010;2023-04-19T00:43:53;7.97;;;7.17;;
54460;SDS011;40371;49.414;11.010;2023-04-19T00:46:18;8.80;;;7.10;;
54460;SDS011;40371;49.414;11.010;2023-04-19T00:48:44;7.63;;;6.60;;
54460;SDS011;40371;49.414;11.010;2023-04-19T00:51:10;7.23;;;6.60;;
54460;SDS011;40371;49.414;11.010;2023-04-19T00:53:37;7.87;;;6.67;;
54460;SDS011;40371;49.414;11.010;2023-04-19T00:56:04;7.50;;;6.83;;
54460;SDS011;40371;49.414;11.010;2023-04-19T00:58:30;7.10;;;6.40;;
54460;SDS011;40371;49.414;11.010;2023-04-19T01:00:56;6.87;;;6.20;;
54460;SDS011;40371;49.414;11.010;2023-04-19T01:03:22;7.40;;;6.70;;
54460;SDS011;40371;49.414;11.010;2023-04-19T01:05:49;7.40;;;6.70;;
54460;SDS011;40371;49.414;11.010;2023-04-19T01:08:15;7.23;;;6.53;;
54460;SDS011;40371;49.414;11.010;2023-04-19T01:10:40;7.77;;;6.97;;
54460;SDS011;40371;49.414;11.010;2023-04-19T01:13:07;7.77;;;6.97;;
54460;SDS011;40371;49.414;11.010;2023-04-19T01:15:36;7.57;;;6.87;;
54460;SDS011;40371;49.414;11.010;2023-04-19T01:18:01;7.97;;;7.17;;
54460;SDS011;40371;49.414;11.010;2023-04-19T01:20:27;7.20;;;6.50;;
54460;SDS011;40371;49.414;11.010;2023-04-19T01:22:52;8.00;;;7.20;;
54460;SDS011;40371;49.414;11.010;2023-04-19T01:25:19;7.17;;;6.47;;
54460;SDS011;40371;49.414;11.010;2023-04-19T01:27:44;8.60;;;7.80;;
54460;SDS011;40371;49.414;11.010;2023-04-19T01:30:10;8.90;;;7.53;;
54460;SDS011;40371;49.414;11.010;2023-04-19T01:32:36;8.63;;;7.83;;
54460;SDS011;40371;49.414;11.010;2023-04-19T01:35:01;8.17;;;7.40;;
54460;SDS011;40371;49.414;11.010;2023-04-19T01:37:28;7.43;;;6.73;;
54460;SDS011;40371;49.414;11.010;2023-04-19T01:39:54;8.57;;;7.77;;
54460;SDS011;40371;49.414;11.010;2023-04-19T01:42:20;7.90;;;7.20;;
54460;SDS011;40371;49.414;11.010;2023-04-19T01:44:45;8.30;;;7.50;;
54460;SDS011;40371;49.414;11.010;2023-04-19T01:47:11;8.13;;;7.33;;
54460;SDS011;40371;49.414;11.010;2023-04-19T01:49:38;8.13;;;7.43;;
54460;SDS011;40371;49.414;11.010;2023-04-19T01:52:04;8.03;;;7.33;;
54460;SDS011;40371;49.414;11.010;2023-04-19T01:54:29;8.33;;;7.50;;
54460;SDS011;40371;49.414;11.010;2023-04-19T01:56:55;8.20;;;7.40;;
54460;SDS011;40371;49.414;11.010;2023-04-19T01:59:21;9.10;;;8.17;;
54460;SDS011;40371;49.414;11.010;2023-04-19T02:01:46;8.27;;;7.53;;
54460;SDS011;40371;49.414;11.010;2023-04-19T02:04:12;10.30;;;7.87;;
54460;SDS011;40371;49.414;11.010;2023-04-19T02:06:37;8.53;;;7.43;;
54460;SDS011;40371;49.414;11.010;2023-04-19T02:09:03;8.67;;;7.87;;
54460;SDS011;40371;49.414;11.010;2023-04-19T02:11:29;8.03;;;7.33;;
54460;SDS011;40371;49.414;11.010;2023-04-19T02:13:55;8.33;;;7.53;;
54460;SDS011;40371;49.414;11.010;2023-04-19T02:16:20;9.07;;;8.13;;
54460;SDS011;40371;49.414;11.010;2023-04-19T02:18:46;9.43;;;8.43;;
54460;SDS011;40371;49.414;11.010;2023-04-19T02:21:12;8.03;;;7.33;;
54460;SDS011;40371;49.414;11.010;2023-04-19T02:23:37;8.87;;;7.97;;
54460;SDS011;40371;49.414;11.010;2023-04-19T02:26:03;8.83;;;7.93;;
54460;SDS011;40371;49.414;11.010;2023-04-19T02:28:29;8.67;;;7.87;;
54460;SDS011;40371;49.414;11.010;2023-04-19T02:30:55;9.60;;;8.70;;
54460;SDS011;40371;49.414;11.010;2023-04-19T02:33:22;10.57;;;7.70;;
54460;SDS011;40371;49.414;11.010;2023-04-19T02:35:49;9.33;;;8.00;;
54460;SDS011;40371;49.414;11.010;2023-04-19T02:38:14;8.33;;;7.53;;
54460;SDS011;40371;49.414;11.010;2023-04-19T02:40:40;9.70;;;8.13;;
54460;SDS011;40371;49.414;11.010;2023-04-19T02:43:06;8.83;;;8.03;;
54460;SDS011;40371;49.414;11.010;2023-04-19T02:45:31;10.53;;;7.87;;
54460;SDS011;40371;49.414;11.010;2023-04-19T02:47:57;8.87;;;8.07;;
54460;SDS011;40371;49.414;11.010;2023-04-19T02:50:23;9.90;;;7.97;;
54460;SDS011;40371;49.414;11.010;2023-04-19T02:52:51;8.87;;;7.97;;
54460;SDS011;40371;49.414;11.010;2023-04-19T02:55:18;8.63;;;7.73;;
54460;SDS011;40371;49.414;11.010;2023-04-19T02:57:47;9.90;;;7.60;;
54460;SDS011;40371;49.414;11.010;2023-04-19T03:00:12;8.47;;;7.73;;
54460;SDS011;40371;49.414;11.010;2023-04-19T03:02:43;8.30;;;7.50;;
54460;SDS011;40371;49.414;11.010;2023-04-19T03:05:09;8.93;;;8.03;;
54460;SDS011;40371;49.414;11.010;2023-04-19T03:07:34;9.33;;;7.50;;
54460;SDS011;40371;49.414;11.010;2023-04-19T03:10:01;8.17;;;7.47;;
54460;SDS011;40371;49.414;11.010;2023-04-19T03:12:26;8.30;;;7.37;;
54460;SDS011;40371;49.414;11.010;2023-04-19T03:14:52;9.07;;;7.80;;
54460;SDS011;40371;49.414;11.010;2023-04-19T03:17:17;8.60;;;7.80;;
54460;SDS011;40371;49.414;11.010;2023-04-19T03:19:44;8.70;;;7.80;;
54460;SDS011;40371;49.414;11.010;2023-04-19T03:22:09;8.73;;;7.83;;
54460;SDS011;40371;49.414;11.010;2023-04-19T03:24:35;8.93;;;8.03;;
54460;SDS011;40371;49.414;11.010;2023-04-19T03:27:13;8.43;;;7.63;;
54460;SDS011;40371;49.414;11.010;2023-04-19T03:29:39;8.63;;;7.83;;
54460;SDS011;40371;49.414;11.010;2023-04-19T03:32:08;8.33;;;7.60;;
54460;SDS011;40371;49.414;11.010;2023-04-19T03:34:33;7.93;;;7.20;;
54460;SDS011;40371;49.414;11.010;2023-04-19T03:36:59;8.77;;;7.87;;
54460;SDS011;40371;49.414;11.010;2023-04-19T03:39:25;9.70;;;8.70;;
54460;SDS011;40371;49.414;11.010;2023-04-19T03:41:55;11.40;;;8.90;;
54460;SDS011;40371;49.414;11.010;2023-04-19T03:44:33;8.90;;;8.10;;
54460;SDS011;40371;49.414;11.010;2023-04-19T03:47:01;8.50;;;7.60;;
54460;SDS011;40371;49.414;11.010;2023-04-19T03:49:32;8.50;;;7.70;;
54460;SDS011;40371;49.414;11.010;2023-04-19T03:52:02;9.10;;;7.20;;
54460;SDS011;40371;49.414;11.010;2023-04-19T03:54:28;8.60;;;7.80;;
54460;SDS011;40371;49.414;11.010;2023-04-19T03:56:54;8.47;;;7.60;;
54460;SDS011;40371;49.414;11.010;2023-04-19T03:59:19;8.60;;;7.53;;
54460;SDS011;40371;49.414;11.010;2023-04-19T04:01:45;9.27;;;7.60;;
54460;SDS011;40371;49.414;11.010;2023-04-19T04:04:11;8.60;;;7.80;;
54460;SDS011;40371;49.414;11.010;2023-04-19T04:06:37;8.10;;;7.30;;
54460;SDS011;40371;49.414;11.010;2023-04-19T04:09:03;9.67;;;8.77;;
54460;SDS011;40371;49.414;11.010;2023-04-19T04:11:29;9.70;;;8.73;;
54460;SDS011;40371;49.414;11.010;2023-04-19T04:13:55;11.63;;;8.30;;
54460;SDS011;40371;49.414;11.010;2023-04-19T04:16:25;8.87;;;8.07;;
54460;SDS011;40371;49.414;11.010;2023-04-19T04:18:52;10.23;;;8.30;;
54460;SDS011;40371;49.414;11.010;2023-04-19T04:21:18;10.37;;;7.83;;
54460;SDS011;40371;49.414;11.010;2023-04-19T04:23:45;8.93;;;8.03;;
54460;SDS011;40371;49.414;11.010;2023-04-19T04:26:17;9.20;;;8.17;;
54460;SDS011;40371;49.414;11.010;2023-04-19T04:29:01;8.97;;;7.90;;
54460;SDS011;40371;49.414;11.010;2023-04-19T04:31:28;9.17;;;8.20;;
54460;SDS011;40371;49.414;11.010;2023-04-19T04:33:54;9.27;;;8.37;;
54460;SDS011;40371;49.414;11.010;2023-04-19T04:36:20;9.03;;;8.10;;
54460;SDS011;40371;49.414;11.010;2023-04-19T04:38:47;10.40;;;9.00;;
54460;SDS011;40371;49.414;11.010;2023-04-19T04:41:13;9.60;;;8.70;;
54460;SDS011;40371;49.414;11.010;2023-04-19T04:43:38;9.27;;;7.77;;
54460;SDS011;40371;49.414;11.010;2023-04-19T04:46:04;11.43;;;8.80;;
54460;SDS011;40371;49.414;11.010;2023-04-19T04:48:35;9.60;;;8.70;;
54460;SDS011;40371;49.414;11.010;2023-04-19T04:51:03;10.13;;;8.33;;
54460;SDS011;40371;49.414;11.010;2023-04-19T04:53:29;9.37;;;8.47;;
54460;SDS011;40371;49.414;11.010;2023-04-19T04:55:54;13.07;;;9.33;;
54460;SDS011;40371;49.414;11.010;2023-04-19T04:58:20;9.73;;;8.73;;
54460;SDS011;40371;49.414;11.010;2023-04-19T05:01:06;9.33;;;8.43;;
54460;SDS011;40371;49.414;11.010;2023-04-19T05:03:37;9.43;;;8.43;;
54460;SDS011;40371;49.414;11.010;2023-04-19T05:06:05;10.93;;;9.33;;
54460;SDS011;40371;49.414;11.010;2023-04-19T05:08:31;9.57;;;8.57;;
54460;SDS011;40371;49.414;11.010;2023-04-19T05:11:09;9.97;;;8.97;;
54460;SDS011;40371;49.414;11.010;2023-04-19T05:13:36;9.70;;;8.70;;
54460;SDS011;40371;49.414;11.010;2023-04-19T05:16:02;10.57;;;8.57;;
54460;SDS011;40371;49.414;11.010;2023-04-19T05:18:27;9.17;;;8.27;;
54460;SDS011;40371;49.414;11.010;2023-04-19T05:20:53;10.03;;;9.13;;
54460;SDS011;40371;49.414;11.010;2023-04-19T05:23:24;11.00;;;9.87;;
54460;SDS011;40371;49.414;11.010;2023-04-19T05:25:50;8.57;;;7.77;;
54460;SDS011;40371;49.414;11.010;2023-04-19T05:28:16;10.20;;;8.70;;
54460;SDS011;40371;49.414;11.010;2023-04-19T05:30:54;9.90;;;8.63;;
54460;SDS011;40371;49.414;11.010;2023-04-19T05:33:22;8.53;;;7.77;;
54460;SDS011;40371;49.414;11.010;2023-04-19T05:35:50;10.00;;;8.80;;
54460;SDS011;40371;49.414;11.010;2023-04-19T05:38:15;10.50;;;9.10;;
54460;SDS011;40371;49.414;11.010;2023-04-19T05:40:43;10.07;;;8.63;;
54460;SDS011;40371;49.414;11.010;2023-04-19T05:43:08;9.17;;;8.27;;
54460;SDS011;40371;49.414;11.010;2023-04-19T05:45:35;11.43;;;9.30;;
54460;SDS011;40371;49.414;11.010;2023-04-19T05:48:00;11.07;;;9.13;;
54460;SDS011;40371;49.414;11.010;2023-04-19T05:50:38;10.30;;;9.23;;
54460;SDS011;40371;49.414;11.010;2023-04-19T05:53:27;12.17;;;9.37;;
54460;SDS011;40371;49.414;11.010;2023-04-19T05:55:54;10.53;;;9.50;;
54460;SDS011;40371;49.414;11.010;2023-04-19T05:58:19;11.03;;;9.73;;
54460;SDS011;40371;49.414;11.010;2023-04-19T06:00:45;10.60;;;9.53;;
54460;SDS011;40371;49.414;11.010;2023-04-19T06:03:14;10.90;;;9.80;;
54460;SDS011;40371;49.414;11.010;2023-04-19T06:05:40;10.47;;;9.37;;
54460;SDS011;40371;49.414;11.010;2023-04-19T06:08:07;10.43;;;9.33;;
54460;SDS011;40371;49.414;11.010;2023-04-19T06:10:34;12.17;;;9.80;;
54460;SDS011;40371;49.414;11.010;2023-04-19T06:13:00;13.63;;;9.90;;
54460;SDS011;40371;49.414;11.010;2023-04-19T06:15:26;12.37;;;10.33;;
54460;SDS011;40371;49.414;11.010;2023-04-19T06:17:52;10.97;;;9.50;;
54460;SDS011;40371;49.414;11.010;2023-04-19T06:20:17;11.50;;;10.10;;
54460;SDS011;40371;49.414;11.010;2023-04-19T06:22:47;12.03;;;10.57;;
54460;SDS011;40371;49.414;11.010;2023-04-19T06:25:13;10.57;;;9.37;;
54460;SDS011;40371;49.414;11.010;2023-04-19T06:27:39;10.53;;;9.43;;
54460;SDS011;40371;49.414;11.010;2023-04-19T06:30:05;11.33;;;10.20;;
54460;SDS011;40371;49.414;11.010;2023-04-19T06:32:31;14.20;;;10.50;;
54460;SDS011;40371;49.414;11.010;2023-04-19T06:34:57;13.03;;;9.90;;
54460;SDS011;40371;49.414;11.010;2023-04-19T06:37:23;11.40;;;10.20;;
54460;SDS011;40371;49.414;11.010;2023-04-19T06:39:48;9.93;;;8.93;;
54460;SDS011;40371;49.414;11.010;2023-04-19T06:42:14;11.83;;;10.47;;
54460;SDS011;40371;49.414;11.010;2023-04-19T06:44:39;10.10;;;9.10;;
54460;SDS011;40371;49.414;11.010;2023-04-19T06:47:05;10.90;;;9.70;;
54460;SDS011;40371;49.414;11.010;2023-04-19T06:49:30;12.03;;;9.60;;
54460;SDS011;40371;49.414;11.010;2023-04-19T06:51:57;15.23;;;10.43;;
54460;SDS011;40371;49.414;11.010;2023-04-19T06:54:23;12.57;;;9.73;;
54460;SDS011;40371;49.414;11.010;2023-04-19T06:56:49;10.87;;;9.77;;
54460;SDS011;40371;49.414;11.010;2023-04-19T06:59:18;10.83;;;9.80;;
54460;SDS011;40371;49.414;11.010;2023-04-19T07:01:44;10.57;;;9.57;;
54460;SDS011;40371;49.414;11.010;2023-04-19T07:04:11;11.33;;;10.17;;
54460;SDS011;40371;49.414;11.010;2023-04-19T07:06:37;10.77;;;9.60;;
54460;SDS011;40371;49.414;11.010;2023-04-19T07:09:03;13.20;;;9.93;;
54460;SDS011;40371;49.414;11.010;2023-04-19T07:11:30;10.77;;;9.67;;
54460;SDS011;40371;49.414;11.010;2023-04-19T07:13:56;10.30;;;9.40;;
54460;SDS011;40371;49.414;11.010;2023-04-19T07:16:21;11.47;;;10.27;;
54460;SDS011;40371;49.414;11.010;2023-04-19T07:18:47;12.10;;;10.77;;
54460;SDS011;40371;49.414;11.010;2023-04-19T07:21:13;12.63;;;11.43;;
54460;SDS011;40371;49.414;11.010;2023-04-19T07:23:39;12.87;;;11.03;;
54460;SDS011;40371;49.414;11.010;2023-04-19T07:26:05;13.80;;;10.90;;
54460;SDS011;40371;49.414;11.010;2023-04-19T07:28:31;13.20;;;11.87;;
54460;SDS011;40371;49.414;11.010;2023-04-19T07:30:57;12.87;;;11.57;;
54460;SDS011;40371;49.414;11.010;2023-04-19T07:33:25;13.30;;;11.93;;
54460;SDS011;40371;49.414;11.010;2023-04-19T07:35:52;16.70;;;12.87;;
54460;SDS011;40371;49.414;11.010;2023-04-19T07:38:18;12.77;;;11.47;;
54460;SDS011;40371;49.414;11.010;2023-04-19T07:40:43;13.77;;;12.40;;
54460;SDS011;40371;49.414;11.010;2023-04-19T07:43:09;14.73;;;12.97;;
54460;SDS011;40371;49.414;11.010;2023-04-19T07:45:35;13.80;;;12.30;;
54460;SDS011;40371;49.414;11.010;2023-04-19T07:48:00;16.50;;;13.33;;
54460;SDS011;40371;49.414;11.010;2023-04-19T07:50:27;15.00;;;13.47;;
54460;SDS011;40371;49.414;11.010;2023-04-19T07:52:52;16.93;;;14.57;;
54460;SDS011;40371;49.414;11.010;2023-04-19T07:55:18;19.53;;;15.50;;
54460;SDS011;40371;49.414;11.010;2023-04-19T07:57:45;17.47;;;14.93;;
54460;SDS011;40371;49.414;11.010;2023-04-19T08:00:18;17.70;;;14.63;;
54460;SDS011;40371;49.414;11.010;2023-04-19T08:02:46;17.93;;;15.40;;
54460;SDS011;40371;49.414;11.010;2023-04-19T08:05:12;16.30;;;14.60;;
54460;SDS011;40371;49.414;11.010;2023-04-19T08:07:41;17.13;;;14.37;;
54460;SDS011;40371;49.414;11.010;2023-04-19T08:10:07;23.17;;;16.10;;
54460;SDS011;40371;49.414;11.010;2023-04-19T08:12:33;19.87;;;15.87;;
54460;SDS011;40371;49.414;11.010;2023-04-19T08:14:59;18.00;;;14.73;;
54460;SDS011;40371;49.414;11.010;2023-04-19T08:17:25;16.70;;;14.63;;
54460;SDS011;40371;49.414;11.010;2023-04-19T08:19:51;17.00;;;15.17;;
54460;SDS011;40371;49.414;11.010;2023-04-19T08:22:17;17.30;;;14.63;;
54460;SDS011;40371;49.414;11.010;2023-04-19T08:24:43;16.13;;;14.30;;
54460;SDS011;40371;49.414;11.010;2023-04-19T08:27:09;15.87;;;13.53;;
54460;SDS011;40371;49.414;11.010;2023-04-19T08:29:34;16.40;;;14.10;;
54460;SDS011;40371;49.414;11.010;2023-04-19T08:32:00;19.57;;;15.90;;
54460;SDS011;40371;49.414;11.010;2023-04-19T08:34:26;15.30;;;13.53;;
54460;SDS011;40371;49.414;11.010;2023-04-19T08:36:52;17.23;;;14.30;;
54460;SDS011;40371;49.414;11.010;2023-04-19T08:39:17;18.17;;;15.63;;
54460;SDS011;40371;49.414;11.010;2023-04-19T08:41:43;18.87;;;16.87;;
54460;SDS011;40371;49.414;11.010;2023-04-19T08:44:12;18.57;;;16.23;;
54460;SDS011;40371;49.414;11.010;2023-04-19T08:46:38;18.77;;;16.60;;
54460;SDS011;40371;49.414;11.010;2023-04-19T08:49:05;17.90;;;16.10;;
54460;SDS011;40371;49.414;11.010;2023-04-19T08:51:33;21.23;;;17.97;;
54460;SDS011;40371;49.414;11.010;2023-04-19T08:53:59;19.20;;;17.13;;
54460;SDS011;40371;49.414;11.010;2023-04-19T08:56:28;16.40;;;14.70;;
54460;SDS011;40371;49.414;11.010;2023-04-19T08:58:55;17.53;;;15.33;;
54460;SDS011;40371;49.414;11.010;2023-04-19T09:01:20;15.90;;;14.30;;
54460;SDS011;40371;49.414;11.010;2023-04-19T09:03:46;16.27;;;14.57;;
54460;SDS011;40371;49.414;11.010;2023-04-19T09:06:11;16.63;;;14.83;;
54460;SDS011;40371;49.414;11.010;2023-04-19T09:08:38;17.13;;;15.43;;
54460;SDS011;40371;49.414;11.010;2023-04-19T09:11:04;17.50;;;15.73;;
54460;SDS011;40371;49.414;11.010;2023-04-19T09:13:30;18.77;;;16.80;;
54460;SDS011;40371;49.414;11.010;2023-04-19T09:15:56;17.23;;;15.47;;
54460;SDS011;40371;49.414;11.010;2023-04-19T09:18:24;17.27;;;15.27;;
54460;SDS011;40371;49.414;11.010;2023-04-19T09:20:50;19.63;;;16.47;;
54460;SDS011;40371;49.414;11.010;2023-04-19T09:23:21;17.87;;;15.97;;
54460;SDS011;40371;49.414;11.010;2023-04-19T09:25:53;17.07;;;15.37;;
54460;SDS011;40371;49.414;11.010;2023-04-19T09:28:28;15.90;;;13.77;;
54460;SDS011;40371;49.414;11.010;2023-04-19T09:30:55;16.27;;;14.60;;
54460;SDS011;40371;49.414;11.010;2023-04-19T09:33:31;17.13;;;15.33;;
54460;SDS011;40371;49.414;11.010;2023-04-19T09:35:57;13.50;;;12.20;;
54460;SDS011;40371;49.414;11.010;2023-04-19T09:38:24;12.83;;;11.50;;
54460;SDS011;40371;49.414;11.010;2023-04-19T09:40:50;11.67;;;10.57;;
54460;SDS011;40371;49.414;11.010;2023-04-19T09:43:24;11.03;;;9.83;;
54460;SDS011;40371;49.414;11.010;2023-04-19T09:45:50;10.67;;;9.57;;
54460;SDS011;40371;49.414;11.010;2023-04-19T09:48:16;11.40;;;9.70;;
54460;SDS011;40371;49.414;11.010;2023-04-19T09:50:52;9.93;;;8.93;;
54460;SDS011;40371;49.414;11.010;2023-04-19T09:53:23;9.20;;;8.40;;
54460;SDS011;40371;49.414;11.010;2023-04-19T09:55:50;9.07;;;8.17;;
54460;SDS011;40371;49.414;11.010;2023-04-19T09:58:17;10.03;;;9.07;;
54460;SDS011;40371;49.414;11.010;2023-04-19T10:00:44;9.87;;;8.80;;
54460;SDS011;40371;49.414;11.010;2023-04-19T10:03:12;9.90;;;9.00;;
54460;SDS011;40371;49.414;11.010;2023-04-19T10:05:41;9.57;;;8.57;;
54460;SDS011;40371;49.414;11.010;2023-04-19T10:08:08;11.10;;;8.87;;
54460;SDS011;40371;49.414;11.010;2023-04-19T10:10:35;9.40;;;8.43;;
54460;SDS011;40371;49.414;11.010;2023-04-19T10:13:02;11.63;;;9.17;;
54460;SDS011;40371;49.414;11.010;2023-04-19T10:15:30;10.53;;;8.83;;
54460;SDS011;40371;49.414;11.010;2023-04-19T10:17:57;9.60;;;8.37;;
54460;SDS011;40371;49.414;11.010;2023-04-19T10:20:29;12.00;;;9.63;;
54460;SDS011;40371;49.414;11.010;2023-04-19T10:23:00;9.90;;;8.90;;
54460;SDS011;40371;49.414;11.010;2023-04-19T10:25:28;10.30;;;9.20;;
54460;SDS011;40371;49.414;11.010;2023-04-19T10:27:54;9.63;;;8.60;;
54460;SDS011;40371;49.414;11.010;2023-04-19T10:30:21;10.13;;;8.20;;
54460;SDS011;40371;49.414;11.010;2023-04-19T10:32:52;10.07;;;9.00;;
54460;SDS011;40371;49.414;11.010;2023-04-19T10:35:26;10.60;;;9.47;;
54460;SDS011;40371;49.414;11.010;2023-04-19T10:43:24;9.27;;;8.33;;
54460;SDS011;40371;49.414;11.010;2023-04-19T10:45:57;7.90;;;7.10;;
54460;SDS011;40371;49.414;11.010;2023-04-19T10:51:15;7.47;;;6.77;;
54460;SDS011;40371;49.414;11.010;2023-04-19T10:53:43;7.40;;;6.73;;
54460;SDS011;40371;49.414;11.010;2023-04-19T10:56:10;7.07;;;6.37;;
54460;SDS011;40371;49.414;11.010;2023-04-19T11:01:36;6.57;;;5.97;;
54460;SDS011;40371;49.414;11.010;2023-04-19T11:04:04;7.63;;;6.20;;
54460;SDS011;40371;49.414;11.010;2023-04-19T11:06:31;7.20;;;6.50;;
54460;SDS011;40371;49.414;11.010;2023-04-19T11:08:57;8.90;;;6.57;;
54460;SDS011;40371;49.414;11.010;2023-04-19T11:11:24;6.40;;;5.80;;
54460;SDS011;40371;49.414;11.010;2023-04-19T11:13:50;8.13;;;6.83;;
54460;SDS011;40371;49.414;11.010;2023-04-19T11:16:17;7.43;;;6.73;;
54460;SDS011;40371;49.414;11.010;2023-04-19T11:18:43;7.20;;;6.50;;
54460;SDS011;40371;49.414;11.010;2023-04-19T11:21:12;7.00;;;6.20;;
54460;SDS011;40371;49.414;11.010;2023-04-19T11:23:38;6.80;;;5.87;;
54460;SDS011;40371;49.414;11.010;2023-04-19T11:26:05;8.23;;;5.90;;
54460;SDS011;40371;49.414;11.010;2023-04-19T11:28:35;6.07;;;5.50;;
54460;SDS011;40371;49.414;11.010;2023-04-19T11:31:01;6.67;;;5.80;;
54460;SDS011;40371;49.414;11.010;2023-04-19T11:33:31;5.80;;;5.27;;
54460;SDS011;40371;49.414;11.010;2023-04-19T11:36:01;5.50;;;5.00;;
54460;SDS011;40371;49.414;11.010;2023-04-19T11:38:28;5.03;;;4.63;;
54460;SDS011;40371;49.414;11.010;2023-04-19T11:41:00;6.23;;;5.53;;
54460;SDS011;40371;49.414;11.010;2023-04-19T11:43:36;4.23;;;3.93;;
54460;SDS011;40371;49.414;11.010;2023-04-19T11:46:05;5.60;;;4.70;;
54460;SDS011;40371;49.414;11.010;2023-04-19T11:48:35;4.30;;;3.87;;
54460;SDS011;40371;49.414;11.010;2023-04-19T11:51:01;5.03;;;4.20;;
54460;SDS011;40371;49.414;11.010;2023-04-19T11:53:29;4.10;;;3.80;;
54460;SDS011;40371;49.414;11.010;2023-04-19T11:56:02;5.30;;;4.33;;
54460;SDS011;40371;49.414;11.010;2023-04-19T11:58:40;3.97;;;3.67;;
54460;SDS011;40371;49.414;11.010;2023-04-19T12:01:12;4.00;;;3.30;;
54460;SDS011;40371;49.414;11.010;2023-04-19T12:03:46;4.77;;;3.37;;
54460;SDS011;40371;49.414;11.010;2023-04-19T12:06:24;4.10;;;3.07;;
54460;SDS011;40371;49.414;11.010;2023-04-19T12:08:51;4.67;;;3.77;;
54460;SDS011;40371;49.414;11.010;2023-04-19T12:11:20;3.40;;;3.10;;
54460;SDS011;40371;49.414;11.010;2023-04-19T12:13:54;3.33;;;3.03;;
54460;SDS011;40371;49.414;11.010;2023-04-19T12:16:32;3.00;;;2.77;;
54460;SDS011;40371;49.414;11.010;2023-04-19T12:18:58;3.33;;;3.07;;
54460;SDS011;40371;49.414;11.010;2023-04-19T12:21:44;2.53;;;2.33;;
54460;SDS011;40371;49.414;11.010;2023-04-19T12:24:13;2.60;;;2.47;;
54460;SDS011;40371;49.414;11.010;2023-04-19T12:26:55;2.77;;;2.57;;
54460;SDS011;40371;49.414;11.010;2023-04-19T12:29:21;3.87;;;2.70;;
54460;SDS011;40371;49.414;11.010;2023-04-19T12:31:47;2.20;;;2.00;;
54460;SDS011;40371;49.414;11.010;2023-04-19T12:34:12;3.67;;;2.40;;
54460;SDS011;40371;49.414;11.010;2023-04-19T12:36:38;2.97;;;2.30;;
54460;SDS011;40371;49.414;11.010;2023-04-19T12:39:03;2.27;;;2.07;;
54460;SDS011;40371;49.414;11.010;2023-04-19T12:41:29;2.23;;;2.00;;
54460;SDS011;40371;49.414;11.010;2023-04-19T12:43:55;2.17;;;1.97;;
54460;SDS011;40371;49.414;11.010;2023-04-19T12:46:20;4.67;;;2.40;;
54460;SDS011;40371;49.414;11.010;2023-04-19T12:48:46;2.33;;;1.90;;
54460;SDS011;40371;49.414;11.010;2023-04-19T12:51:12;3.50;;;2.00;;
54460;SDS011;40371;49.414;11.010;2023-04-19T12:53:37;2.33;;;1.70;;
54460;SDS011;40371;49.414;11.010;2023-04-19T12:56:05;2.47;;;1.87;;
54460;SDS011;40371;49.414;11.010;2023-04-19T12:58:31;2.87;;;1.30;;
54460;SDS011;40371;49.414;11.010;2023-04-19T13:00:57;3.13;;;2.10;;
54460;SDS011;40371;49.414;11.010;2023-04-19T13:03:22;2.00;;;1.90;;
54460;SDS011;40371;49.414;11.010;2023-04-19T13:05:48;1.67;;;1.57;;
54460;SDS011;40371;49.414;11.010;2023-04-19T13:08:14;1.87;;;1.43;;
54460;SDS011;40371;49.414;11.010;2023-04-19T13:10:39;3.43;;;1.70;;
54460;SDS011;40371;49.414;11.010;2023-04-19T13:13:05;2.00;;;1.50;;
54460;SDS011;40371;49.414;11.010;2023-04-19T13:15:30;1.63;;;1.30;;
54460;SDS011;40371;49.414;11.010;2023-04-19T13:17:56;1.87;;;1.77;;
54460;SDS011;40371;49.414;11.010;2023-04-19T13:20:21;1.50;;;1.40;;
54460;SDS011;40371;49.414;11.010;2023-04-19T13:22:47;1.67;;;1.30;;
54460;SDS011;40371;49.414;11.010;2023-04-19T13:25:13;1.00;;;1.00;;
54460;SDS011;40371;49.414;11.010;2023-04-19T13:27:38;1.50;;;1.40;;
54460;SDS011;40371;49.414;11.010;2023-04-19T13:30:04;3.33;;;1.23;;
54460;SDS011;40371;49.414;11.010;2023-04-19T13:32:30;1.90;;;1.40;;
54460;SDS011;40371;49.414;11.010;2023-04-19T13:34:56;3.33;;;1.20;;
54460;SDS011;40371;49.414;11.010;2023-04-19T13:37:21;2.23;;;1.20;;
54460;SDS011;40371;49.414;11.010;2023-04-19T13:39:47;1.30;;;1.20;;
54460;SDS011;40371;49.414;11.010;2023-04-19T13:42:13;3.17;;;1.40;;
54460;SDS011;40371;49.414;11.010;2023-04-19T13:44:38;1.33;;;1.27;;
54460;SDS011;40371;49.414;11.010;2023-04-19T13:47:04;1.40;;;1.30;;
54460;SDS011;40371;49.414;11.010;2023-04-19T13:49:30;1.50;;;1.33;;
54460;SDS011;40371;49.414;11.010;2023-04-19T13:51:56;1.43;;;1.33;;
54460;SDS011;40371;49.414;11.010;2023-04-19T13:54:21;1.67;;;1.20;;
54460;SDS011;40371;49.414;11.010;2023-04-19T13:56:47;1.20;;;1.20;;
54460;SDS011;40371;49.414;11.010;2023-04-19T13:59:13;1.93;;;1.80;;
54460;SDS011;40371;49.414;11.010;2023-04-19T14:01:39;2.63;;;2.20;;
54460;SDS011;40371;49.414;11.010;2023-04-19T14:04:05;4.13;;;2.23;;
54460;SDS011;40371;49.414;11.010;2023-04-19T14:06:31;2.07;;;1.97;;
54460;SDS011;40371;49.414;11.010;2023-04-19T14:08:57;1.67;;;1.57;;
54460;SDS011;40371;49.414;11.010;2023-04-19T14:11:23;2.10;;;1.97;;
54460;SDS011;40371;49.414;11.010;2023-04-19T14:13:49;5.27;;;2.17;;
54460;SDS011;40371;49.414;11.010;2023-04-19T14:16:16;4.60;;;2.50;;
54460;SDS011;40371;49.414;11.010;2023-04-19T14:18:41;2.30;;;2.10;;
54460;SDS011;40371;49.414;11.010;2023-04-19T14:21:07;2.30;;;2.10;;
54460;SDS011;40371;49.414;11.010;2023-04-19T14:23:33;11.90;;;2.80;;
54460;SDS011;40371;49.414;11.010;2023-04-19T14:25:59;3.47;;;2.00;;
54460;SDS011;40371;49.414;11.010;2023-04-19T14:28:25;4.47;;;1.80;;
54460;SDS011;40371;49.414;11.010;2023-04-19T14:30:50;1.83;;;1.73;;
54460;SDS011;40371;49.414;11.010;2023-04-19T14:33:16;3.27;;;1.73;;
54460;SDS011;40371;49.414;11.010;2023-04-19T14:35:42;3.43;;;1.93;;
54460;SDS011;40371;49.414;11.010;2023-04-19T14:38:07;4.20;;;1.60;;